シドニー の空港の天気 - METARとTAF

シドニー国際空港 ( YSSY / SYD ) - オーストラリア ニューサウスウェールズ州、Mascot
飛行場実況気象(Metar)
観測時間10/19 02:00 AEDT (10/18 15:00 UTC)
風向・風速北東 6m/s
視程10km以上
天気現象
少しの雲 雲底高度 610m
気温19℃
湿度88%
気圧1016hPa
METARYSSY 181500Z 04011KT 9999 FEW020 19/17 Q1016 FM1630 02008KT 9999 SCT008
過去の天気等 Google飛行場航空写真 Wunderground天気予報

過去48時間のMETAR

飛行場予報(TAF)
発表時間: 10/19 01:35 AEDT (10/18 14:35 UTC)
予報対象時間: 19日1時 AEDT ~ 20日5時 AEDT
風向・風速北北東 4m/s
視程10km以上
少しの雲 雲底高度 610m
19日3時 AEDT から
風向・風速北 4m/s
視程10km以上
全天の4割程度の雲 雲底高度 240m
19日10時 AEDT から
風向・風速北 4m/s
視程10km以上
少しの雲 雲底高度 300m
19日11時 AEDT から
風向・風速北北東 6m/s
視程10km以上
なし
19日5時 AEDT から 確率 30% で
視程4000m
天気現象もや
全天の8割程度の雲 雲底高度 150m
TAF AMD YSSY 181435Z 1814/1918 03008KT 9999 FEW020
FM181600 36008KT 9999 SCT008
FM182300 36008KT 9999 FEW010
FM190000 02012KT CAVOK
PROB30 1818/1822 4000 BR BKN005